Scroll down
FLIGHT INFORMATION
Alaska Airlines

ASA64

At Arrival Gate

PAYA
 PAJN
DATE: 2020-08-16
GATE:  -
GATE DEPARTURE: 17:24
TAKEOFF: 17:27
DATE: 2020-08-16
GATE:  -
LANDING: 18:01
GATE ARRIVAL: 18:07
FLIGHT DATA
Speed: 
463 kts
Altitude: 
23,000 ft
Stage Length: 
171.9 nm
Block Time: 
0.7 hrs
Flight Time: 
0.6 hrs
Fuel Used: 
4,508 lb
Cleared Route: 
TRACK DATA
50,000 ft 1,000 kts
AIRCRAFT INFO AND CUMULATIVE STATS
Aircraft Type: 
B737BW
Registration: 
SELCAL: 
FLAP
MSN/LN: 
29753 / 385
Operator: 
Total Flights: 
13
Total Block Time: 
21.7 hrs
Total Flight Time: 
18.8 hrs
Total Fuel Used: 
118,696 lb
DATALINK LOG | Newest first | Current as of: 2022-09-30 02:07:38
LABEL SEQUENCE CONTENT Dn/Up
QD090918:07 9.2▼ Dn
QC030318:01▼ Dn
GA4750ADVANCED GATE ASSIGNMENTS NOT YET AVAILABLE AT THIS AIRPORT▲ Up
GR4750PAJN 18:00 HI-VAL NO DIPL/VIP NO▼ Dn
5R4749BERGS 17:45z FL213 SSR 17:52z RW08 330 10.3 -30 245/14 RW08 18:00z▼ Dn
2U3317PAJN 080936Z 07009KT 10SM -RA SCT009 BKN032 OVC043 12/11 A2986 RMK AO2 P0000 T01170106▲ Up
2S2536PAJN▼ Dn
QB203117:27▼ Dn
QA162717:24 13.7▼ Dn
5U0500PAJN 081344Z 10010KT 6SM -SHRA BR FEW005 BKN035 OVC040 12/11 A2986▲ Up
5S0737PAJN▼ Dn
Q05626[LINK ACK]▲ Up
Q05626[LINK TEST]▼ Dn


AIRCRAFT HISTORY
FLIGHT DATE FLIGHT NO. ORIGIN DESTINATION CLEARED ROUTE BLOCK TIME FLIGHT TIME FUEL USED PILOT
2020-12-28ASA1228PAJN PANC PAJN CGLNB BARLO LYNNS CUSHI ASORT BERGS FAKES YAK JOH DENSN PTERS SKENS MMMAT BBELL DDOUG LMPEE CARDD RW151.6 hrs1.5 hrs7,817 lbDan Downs
2020-08-16ASA64PAYA PAJN 0.7 hrs0.6 hrs4,508 lbKurt Kalbfleisch
2020-08-16ASA64PANC PAYA PANC HEJNO PAYA1.2 hrs0.9 hrs6,579 lbKurt Kalbfleisch
2020-08-15ASA61PACV PANC 0.8 hrs0.6 hrs4,943 lbKurt Kalbfleisch
2020-08-15ASA61PAYA PACV PAYA OCC ATAGA FORAT PACV0.9 hrs0.6 hrs5,039 lbKurt Kalbfleisch
2020-08-14ASA61PAJN PAYA 0.8 hrs0.7 hrs5,313 lbKurt Kalbfleisch
2020-08-14ASA61KSEA PAJN KSEA PANGL KEVNA LVD STVNS PAJN2.6 hrs2.3 hrs14,901 lbKurt Kalbfleisch
2020-08-12ASA1253KSFO KSEA KSFO TYDYE TRUKN DEDHD RBL LMT KNGDM WRUSL BTG PTERA KRIEG HAWKZ LIINE PIKEZ COFAY BREVE NETTZ KWEST VASHN KARFO RW16L1.7 hrs1.5 hrs8,733 lbRobin Oeverby
2020-08-04KPDX KSFO KPDX PEGTY KELYY DUDRE MINNE FAMUK FRFLY FINER FOWND MLBEC JONNE BGGLO LOZIT STLER WESLA MVRKK CCR RW19L2 hrs1.6 hrs10,180 lbKurt Kalbfleisch
2020-08-04KSAN KPDX KSAN WNFLD KERNL GYWNN PADRZ HFMNN CHKNN RIDDL LANDO EHF SHIMR GALLO RENAA MOXEE PORTL TMBRS VANTZ FLOWR WIDMR ROAGE ICEAX HANAH RW28L2.6 hrs2.3 hrs14,676 lbKurt Kalbfleisch
2020-08-02KMRY KSAN KMRY SHOEY BSR MQO RZS LAX MRVEL SPYDE GAMBT LEJEN COMIX FLSHH LNTRN XMANS KLOMN NADDO KLOMN RW271.7 hrs1.4 hrs9,800 lbKurt Kalbfleisch
2020-07-20ASA720KJAC KMRY KJAC NALSI IDA ROGET BAM PUSHH SNS KMRY1.9 hrs1.8 hrs9,815 lbEphedrin
2020-07-17ASA717PAJN KJAC PAJN LVD YZT YVR MWH LKT TOCUD DNW KJAC3.2 hrs3 hrs16,393 lbEphedrin